createdAt,value
2022-11-21T00:00:14.830Z,11.27
2022-11-21T00:05:16.818Z,11.57
2022-11-21T00:10:18.647Z,13.35
2022-11-21T00:15:20.578Z,12.38
2022-11-21T00:20:22.769Z,13.38
2022-11-21T00:25:24.877Z,16.45
2022-11-21T00:30:27.915Z,13.65
2022-11-21T00:35:31.466Z,15.02
2022-11-21T00:40:33.207Z,13.40
2022-11-21T00:45:35.207Z,13.23
2022-11-21T00:50:37.113Z,15.95
2022-11-21T00:55:38.868Z,14.90
2022-11-21T01:00:40.650Z,13.73
2022-11-21T01:05:42.667Z,14.70
2022-11-21T01:10:44.466Z,13.95
2022-11-21T01:15:46.296Z,14.82
2022-11-21T01:20:49.529Z,14.98
2022-11-21T01:25:51.358Z,15.52
2022-11-21T01:30:53.235Z,14.55
2022-11-21T01:35:55.204Z,16.70
2022-11-21T01:40:57.174Z,17.27
2022-11-21T01:45:59.178Z,17.30
2022-11-21T01:51:12.616Z,15.63
2022-11-21T01:56:15.314Z,16.45
2022-11-21T02:01:17.371Z,15.05
2022-11-21T02:06:19.324Z,15.10
2022-11-21T02:11:42.717Z,16.55
2022-11-21T02:16:44.617Z,17.80
2022-11-21T02:22:07.413Z,18.73
2022-11-21T02:27:10.361Z,18.70
2022-11-21T02:32:22.327Z,17.85
2022-11-21T02:37:24.539Z,17.55
2022-11-21T02:42:58.057Z,17.23
2022-11-21T02:48:03.864Z,17.23
2022-11-21T02:53:08.873Z,16.92
2022-11-21T02:58:11.586Z,14.57
2022-11-21T03:03:13.451Z,17.75
2022-11-21T03:08:15.308Z,15.98
2022-11-21T03:13:17.154Z,16.45
2022-11-21T03:18:18.929Z,14.45
2022-11-21T03:23:20.639Z,16.15
2022-11-21T03:28:22.377Z,15.80
2022-11-21T03:33:24.147Z,16.92
2022-11-21T03:38:26.111Z,15.23
2022-11-21T03:43:27.806Z,14.68
2022-11-21T03:48:29.658Z,14.32
2022-11-21T03:53:31.574Z,14.70
2022-11-21T03:58:33.542Z,13.65
2022-11-21T04:03:35.583Z,18.05
2022-11-21T04:08:37.534Z,13.63
2022-11-21T04:13:39.418Z,13.80
2022-11-21T04:18:41.331Z,13.98
2022-11-21T04:23:43.062Z,13.45
2022-11-21T04:28:44.798Z,14.88
2022-11-21T04:33:46.610Z,13.48
2022-11-21T04:38:48.423Z,14.13
2022-11-21T04:43:50.153Z,12.77
2022-11-21T04:48:51.917Z,12.32
2022-11-21T04:53:53.667Z,15.55
2022-11-21T04:58:55.402Z,13.55
2022-11-21T05:03:57.205Z,13.63
2022-11-21T05:08:58.975Z,13.02
2022-11-21T05:14:00.753Z,13.10
2022-11-21T05:19:02.589Z,13.65
2022-11-21T05:24:04.830Z,13.43
2022-11-21T05:29:07.240Z,13.48
2022-11-21T05:34:09.175Z,14.05
2022-11-21T05:39:11.026Z,14.02
2022-11-21T05:44:12.745Z,13.68
2022-11-21T05:49:14.642Z,14.10
2022-11-21T05:54:16.716Z,14.52
2022-11-21T05:59:18.519Z,15.90
2022-11-21T06:04:20.438Z,14.63
2022-11-21T06:09:22.216Z,16.83
2022-11-21T06:14:24.084Z,15.05
2022-11-21T06:19:25.871Z,15.38
2022-11-21T06:24:27.887Z,14.85
2022-11-21T06:29:30.010Z,14.30
2022-11-21T06:34:31.807Z,15.48
2022-11-21T06:39:33.626Z,15.02
2022-11-21T06:44:35.353Z,15.43
2022-11-21T06:49:37.409Z,13.93
2022-11-21T06:54:39.286Z,14.95
2022-11-21T06:59:41.038Z,14.23
2022-11-21T07:04:42.854Z,14.23
2022-11-21T07:09:44.881Z,15.40
2022-11-21T07:14:46.606Z,14.75
2022-11-21T07:19:48.609Z,15.25
2022-11-21T07:24:50.315Z,15.00
2022-11-21T07:29:52.094Z,13.93
2022-11-21T07:34:54.127Z,13.82
2022-11-21T07:39:55.907Z,14.40
2022-11-21T07:44:57.697Z,14.68
2022-11-21T07:49:59.807Z,14.80
2022-11-21T07:55:05.008Z,14.43
2022-11-21T08:00:07.632Z,15.82
2022-11-21T08:05:09.697Z,14.45
2022-11-21T08:10:11.626Z,13.73
2022-11-21T08:15:13.749Z,13.70
2022-11-21T08:20:15.770Z,14.20
2022-11-21T08:25:17.710Z,14.52
2022-11-21T08:30:19.727Z,15.27
2022-11-21T08:35:21.767Z,15.02
2022-11-21T08:40:24.609Z,14.40
2022-11-21T08:45:26.966Z,16.42
2022-11-21T08:50:28.986Z,14.57
2022-11-21T08:55:31.177Z,15.00
2022-11-21T09:00:33.130Z,14.48
2022-11-21T09:05:35.055Z,15.55
2022-11-21T09:10:36.813Z,13.60
2022-11-21T09:15:57.239Z,14.95
2022-11-21T09:20:59.228Z,14.52
2022-11-21T09:26:01.834Z,13.77
2022-11-21T09:31:04.622Z,14.02
2022-11-21T09:36:06.819Z,13.88
2022-11-21T09:41:52.846Z,12.98
2022-11-21T09:47:04.859Z,13.18
2022-11-21T09:52:08.189Z,13.98
2022-11-21T09:57:11.547Z,14.60
2022-11-21T10:02:19.695Z,13.23
2022-11-21T10:07:32.381Z,13.63
2022-11-21T10:12:49.509Z,13.23
2022-11-21T10:18:21.921Z,14.90
2022-11-21T10:23:43.058Z,14.27
2022-11-21T10:28:55.024Z,13.50
2022-11-21T10:33:58.941Z,13.23
2022-11-21T10:39:14.757Z,12.88
2022-11-21T10:44:47.466Z,12.65
2022-11-21T10:49:50.301Z,13.73
2022-11-21T10:55:06.950Z,13.38
2022-11-21T11:00:12.447Z,13.57
2022-11-21T11:05:17.449Z,12.18
2022-11-21T11:10:28.000Z,12.60
2022-11-21T11:15:30.420Z,13.80
2022-11-21T11:20:43.887Z,12.90
2022-11-21T11:25:48.324Z,12.63
2022-11-21T11:30:51.371Z,13.63
2022-11-21T11:35:53.271Z,12.23
2022-11-21T11:40:55.451Z,13.27
2022-11-21T11:46:56.858Z,12.38
2022-11-21T11:52:04.994Z,13.32
2022-11-21T11:57:07.242Z,12.75
2022-11-21T12:02:23.699Z,14.48
2022-11-21T12:13:09.698Z,12.63
2022-11-21T12:18:20.540Z,12.80
2022-11-21T12:23:28.356Z,13.02
2022-11-21T12:29:05.749Z,13.80
2022-11-21T12:34:42.778Z,13.83
2022-11-21T12:40:08.845Z,13.20
2022-11-21T12:45:34.259Z,13.75
2022-11-21T12:51:16.910Z,14.82
2022-11-21T12:56:35.133Z,13.75
2022-11-21T13:06:49.518Z,14.32
2022-11-21T13:12:01.218Z,14.27
2022-11-21T13:17:19.936Z,13.48
2022-11-21T13:22:37.093Z,12.80
2022-11-21T13:27:40.028Z,12.13
2022-11-21T13:32:55.627Z,13.73
2022-11-21T13:38:06.348Z,13.68
2022-11-21T13:48:44.920Z,14.15
2022-11-21T13:54:08.638Z,14.52
2022-11-21T13:59:24.437Z,13.55
2022-11-21T14:04:56.886Z,15.68
2022-11-21T14:10:01.861Z,14.15
2022-11-21T14:15:03.583Z,12.98
2022-11-21T14:20:25.573Z,14.48
2022-11-21T14:25:49.351Z,14.95
2022-11-21T14:30:58.394Z,14.18
2022-11-21T14:36:09.136Z,14.65
2022-11-21T14:41:27.594Z,14.88
2022-11-21T14:46:40.743Z,15.43
2022-11-21T14:51:45.160Z,16.63
2022-11-21T14:56:49.413Z,19.40
2022-11-21T15:02:25.219Z,18.15
2022-11-21T15:07:32.065Z,20.70
2022-11-21T15:12:44.646Z,19.63
2022-11-21T15:18:18.382Z,19.13
2022-11-21T15:23:33.848Z,21.67
2022-11-21T15:28:35.727Z,18.00
2022-11-21T15:39:23.345Z,18.70
2022-11-21T15:44:25.199Z,17.80
2022-11-21T15:49:34.343Z,19.35
2022-11-21T15:54:36.158Z,19.67
2022-11-21T15:59:38.624Z,18.63
2022-11-21T16:04:41.690Z,19.05
2022-11-21T16:09:44.953Z,17.58
2022-11-21T16:14:46.936Z,17.95
2022-11-21T16:19:49.581Z,16.75
2022-11-21T16:24:51.562Z,20.17
2022-11-21T16:29:53.321Z,18.83
2022-11-21T16:34:55.167Z,21.90
2022-11-21T16:39:57.053Z,19.33
2022-11-21T16:44:58.986Z,20.83
2022-11-21T16:50:00.911Z,19.88
2022-11-21T16:55:04.209Z,19.88
2022-11-21T17:00:06.786Z,17.63
2022-11-21T17:05:09.111Z,18.25
2022-11-21T17:10:11.163Z,16.83
2022-11-21T17:15:14.715Z,18.33
2022-11-21T17:20:16.522Z,19.98
2022-11-21T17:25:18.368Z,18.00
2022-11-21T17:30:20.274Z,19.92
2022-11-21T17:35:22.072Z,18.75
2022-11-21T17:40:23.829Z,19.60
2022-11-21T17:45:25.554Z,19.80
2022-11-21T17:50:27.541Z,18.48
2022-11-21T17:55:29.410Z,18.92
2022-11-21T18:00:31.182Z,18.70
2022-11-21T18:05:32.951Z,20.35
2022-11-21T18:10:43.324Z,19.98
2022-11-21T18:15:45.844Z,19.48
2022-11-21T18:20:47.655Z,20.40
2022-11-21T18:25:49.533Z,19.70
2022-11-21T18:30:51.413Z,20.48
2022-11-21T18:35:53.173Z,22.38
2022-11-21T18:40:54.895Z,23.60
2022-11-21T18:46:03.107Z,22.05
2022-11-21T18:56:08.981Z,21.60
2022-11-21T19:01:13.269Z,20.17
2022-11-21T19:06:20.214Z,19.25
2022-11-21T19:11:24.553Z,19.08
2022-11-21T19:16:31.553Z,19.80
2022-11-21T19:21:36.760Z,19.95
2022-11-21T19:26:38.561Z,19.73
2022-11-21T19:31:45.252Z,18.58
2022-11-21T19:36:47.717Z,20.17
2022-11-21T19:41:49.865Z,18.42
2022-11-21T19:46:51.714Z,19.17
2022-11-21T19:51:53.650Z,21.02
2022-11-21T19:56:55.395Z,20.02
2022-11-21T20:01:57.529Z,19.67
2022-11-21T20:07:02.317Z,18.58
2022-11-21T20:12:08.025Z,21.45
2022-11-21T20:17:09.909Z,20.23
2022-11-21T20:22:11.714Z,20.75
2022-11-21T20:27:13.499Z,19.77
2022-11-21T20:32:15.289Z,19.27
2022-11-21T20:37:17.149Z,20.67
2022-11-21T20:42:18.926Z,20.88
2022-11-21T20:47:20.842Z,21.95
2022-11-21T20:57:44.546Z,20.92
2022-11-21T21:02:46.386Z,20.48
2022-11-21T21:07:48.405Z,21.60
2022-11-21T21:12:50.355Z,21.88
2022-11-21T21:17:52.105Z,18.95
2022-11-21T21:22:54.844Z,19.33
2022-11-21T21:28:01.165Z,18.50
2022-11-21T21:33:03.603Z,19.83
2022-11-21T21:38:08.961Z,18.35
2022-11-21T21:43:12.026Z,20.30
2022-11-21T21:48:13.774Z,22.25
2022-11-21T21:53:15.799Z,19.60
2022-11-21T21:58:17.651Z,20.27
2022-11-21T22:03:19.355Z,18.20
2022-11-21T22:08:21.099Z,18.95
2022-11-21T22:13:22.792Z,18.55
2022-11-21T22:18:24.994Z,18.10
2022-11-21T22:23:27.334Z,18.88
2022-11-21T22:28:29.806Z,19.05
2022-11-21T22:33:32.474Z,19.23
2022-11-21T22:38:34.516Z,19.77
2022-11-21T22:43:36.254Z,19.70
2022-11-21T22:48:38.072Z,20.45
2022-11-21T22:53:40.575Z,19.27
2022-11-21T22:58:42.510Z,19.45
2022-11-21T23:03:44.884Z,19.35
2022-11-21T23:08:47.670Z,18.75
2022-11-21T23:13:50.059Z,19.20
2022-11-21T23:18:53.697Z,20.50
2022-11-21T23:23:55.496Z,20.55
2022-11-21T23:28:57.283Z,18.02
2022-11-21T23:33:59.560Z,18.75
2022-11-21T23:39:01.338Z,19.42
2022-11-21T23:44:03.237Z,18.92
2022-11-21T23:49:05.003Z,18.30
2022-11-21T23:54:06.788Z,17.83
2022-11-21T23:59:08.610Z,18.58
